Latest Weather Observations for Portland Airport

IDV60801

Issued at 3:05 pm EDT Sunday 26 October 2014 (issued every 30 minutes, with the page automatically refreshed every 10 minutes)

About weather observations | Map of weather stations | Latest weather observations for VIC | Other Formats
Station Details ID: 090171 Name: CASHMORE AIRPORT Lat: -38.31 Lon: 141.47 Height: 80.9 m
Data from the previous 72 hours. | See also: Recent months at Portland Airport
Date/Time
EDT
Temp
°C
App
Temp
°C
Dew
Point
Rel
Hum
%
Delta-T
°C
Wind Press
QNH
hPa
Press
MSL
hPa
Rain
since 9 am
mm
Dir
 
Spd
km/h
Gust
km/h
Spd
kts
Gust
kts
26/03:00pm 20.2 17.7 12.2 60 4.5 NE 17 24 9 13 1009.2 1009.2 0.0
26/02:30pm 18.9 17.2 12.6 67 3.5 NE 13 19 7 10 1009.9 1009.9 0.0
26/02:00pm 17.4 15.4 11.4 68 3.3 NE 13 20 7 11 1010.6 1010.6 0.0
26/01:30pm 16.5 14.5 12.8 79 2.1 NNE 15 20 8 11 1011.2 1011.3 0.0
26/01:00pm 14.8 12.5 11.6 81 1.7 NNE 15 20 8 11 1011.9 1012.0 0.0
26/12:30pm 13.5 11.7 10.9 84 1.4 NE 11 20 6 11 1011.9 1012.0 0.0
26/12:00pm 13.5 11.7 10.7 83 1.5 N 11 17 6 9 1013.4 1013.4 0.0
26/11:30am 13.6 11.3 10.4 81 1.7 N 13 19 7 10 1014.3 1014.3 0.0
26/11:00am 13.8 11.9 10.4 80 1.8 NE 11 20 6 11 1013.3 1013.3 0.0
26/10:30am 13.3 10.5 10.1 81 1.7 NE 15 22 8 12 1013.0 1013.0 0.0
26/10:17am 13.3 11.0 10.3 82 1.6 NE 13 20 7 11 1013.1 1013.1 0.0
26/10:00am 12.9 10.5 9.9 82 1.5 ENE 13 22 7 12 1013.6 1013.6 0.0
26/09:30am 13.0 11.4 10.2 83 1.5 ENE 9 15 5 8 1014.2 1014.2 0.0
26/09:00am 13.1 10.8 10.3 83 1.5 ENE 13 19 7 10 1014.2 1014.2 0.0
26/08:30am 12.3 10.6 10.0 86 1.2 NE 9 13 5 7 1014.4 1014.4 0.0
26/08:00am 12.1 10.4 9.8 86 1.2 E 9 13 5 7 1014.0 1014.0 0.0
26/07:30am 11.6 10.2 9.7 88 1.0 E 7 11 4 6 1013.8 1013.8 0.0
26/07:00am 11.6 10.2 9.7 88 1.0 E 7 11 4 6 1014.1 1014.1 0.0
26/06:30am 11.4 9.6 9.3 87 1.1 ESE 9 15 5 8 1014.1 1014.1 0.0
26/06:00am 11.3 9.5 9.4 88 1.0 ENE 9 13 5 7 1013.9 1013.9 0.0
26/05:30am 11.5 9.8 9.8 89 0.9 E 9 17 5 9 1013.8 1013.8 0.0
26/05:00am 11.5 9.0 9.6 88 1.0 ENE 13 17 7 9 1012.9 1012.9 0.0
26/04:30am 11.6 9.8 9.5 87 1.1 ESE 9 17 5 9 1014.3 1014.3 0.0
26/04:00am 11.6 9.4 9.3 86 1.2 SE 11 15 6 8 1014.0 1014.0 0.0
26/03:30am 11.5 10.1 9.4 87 1.1 E 7 11 4 6 1014.4 1014.4 0.0
26/03:00am 11.7 9.9 9.4 86 1.2 ESE 9 13 5 7 1014.3 1014.3 0.0
26/02:30am 11.6 9.7 9.2 85 1.2 ESE 9 15 5 8 1014.9 1014.9 0.0
26/02:00am 11.6 10.1 9.3 86 1.2 ESE 7 11 4 6 1015.3 1015.3 0.0
26/01:30am 11.6 10.2 9.7 88 1.0 ESE 7 9 4 5 1015.3 1015.3 0.0
26/01:00am 11.3 10.8 9.4 88 1.0 ESE 2 9 1 5 1015.8 1015.8 0.0
26/12:30am 11.2 9.7 9.3 88 1.0 E 7 13 4 7 1015.9 1015.9 0.0
26/12:00am 11.3 9.0 9.0 86 1.1 E 11 15 6 8 1015.9 1015.9 0.0
 
Date/Time
EDT
Temp
°C
App
Temp
°C
Dew
Point
Rel
Hum
%
Delta-T
°C
Wind Press
QNH
hPa
Press
MSL
hPa
Rain
since 9 am
mm
Dir
 
Spd
km/h
Gust
km/h
Spd
kts
Gust
kts
25/11:34pm 11.6 9.8 9.3 86 1.2 ESE 9 15 5 8 1016.4 1016.4 0.0
25/11:30pm 11.6 9.8 9.3 86 1.2 ESE 9 13 5 7 1016.7 1016.7 0.0
25/11:00pm 11.3 9.7 8.9 85 1.2 ESE 7 11 4 6 1016.8 1016.8 0.0
25/10:30pm 11.9 10.1 9.3 84 1.3 E 9 15 5 8 1016.9 1016.9 0.0
25/10:00pm 11.9 10.4 9.1 83 1.4 ESE 7 11 4 6 1017.0 1017.0 0.0
25/09:30pm 12.1 10.2 8.9 81 1.6 SE 9 15 5 8 1017.3 1017.3 0.0
25/09:00pm 12.3 9.6 9.1 81 1.6 SE 13 19 7 10 1017.1 1017.1 0.0
25/08:30pm 12.3 10.0 9.0 80 1.7 ESE 11 20 6 11 1016.9 1016.9 0.0
25/08:00pm 12.5 10.7 9.3 81 1.6 ESE 9 17 5 9 1016.9 1016.9 0.0
25/07:30pm 12.8 10.5 9.1 78 1.9 ESE 11 20 6 11 1016.8 1016.8 0.0
25/07:00pm 13.1 10.0 9.0 76 2.1 SE 15 20 8 11 1017.1 1017.1 0.0
25/06:30pm 13.5 11.4 9.7 78 2.0 SE 11 19 6 10 1016.7 1016.7 0.0
25/06:00pm 13.6 11.2 10.0 79 1.9 SSE 13 20 7 11 1016.5 1016.5 0.0
25/05:30pm 14.2 11.9 10.4 78 2.0 ESE 13 20 7 11 1016.5 1016.5 0.0
25/05:00pm 14.3 11.9 10.1 76 2.2 SE 13 19 7 10 1016.7 1016.7 0.0
25/04:30pm 14.4 12.0 10.2 76 2.2 ESE 13 24 7 13 1016.3 1016.3 0.0
25/04:00pm 14.2 11.5 10.2 77 2.1 SE 15 22 8 12 1016.7 1016.7 0.0
25/03:30pm 14.4 11.5 9.8 74 2.4 SE 15 22 8 12 1016.9 1016.9 0.0
25/03:00pm 15.3 12.6 10.5 73 2.5 SSE 15 20 8 11 1016.8 1016.8 0.0
25/02:30pm 14.9 12.2 10.5 75 2.3 SE 15 24 8 13 1017.0 1017.0 0.0
25/02:00pm 14.1 11.8 11.6 85 1.3 S 15 22 8 12 1017.3 1017.3 0.0
25/01:53pm 13.8 11.1 11.7 87 1.1 S 17 22 9 12 1017.5 1017.5 0.0
25/01:33pm 14.2 11.8 11.4 83 1.5 SSE 15 22 8 12 1017.6 1017.6 0.0
25/01:30pm 14.4 11.9 11.0 80 1.8 SE 15 24 8 13 1017.7 1017.7 0.0
25/01:00pm 14.5 12.3 10.9 79 1.9 SSE 13 20 7 11 1017.6 1017.6 0.0
25/12:30pm 13.7 11.0 10.3 80 1.8 SE 15 19 8 10 1017.9 1017.9 0.0
25/12:00pm 14.0 11.8 10.8 81 1.7 SE 13 19 7 10 1018.1 1018.1 0.0
25/11:30am 13.9 11.6 10.5 80 1.8 SE 13 17 7 9 1018.0 1018.0 0.0
25/11:00am 14.1 11.9 10.7 80 1.8 ESE 13 19 7 10 1018.0 1018.0 0.0
25/10:57am 14.0 11.7 10.6 80 1.8 ESE 13 19 7 10 1017.9 1017.9 0.0
25/10:30am 13.5 11.7 11.0 85 1.3 ESE 11 17 6 9 1017.8 1017.8 0.0
25/10:10am 13.6 11.5 11.1 85 1.3 SE 13 20 7 11 1017.8 1017.8 0.0
25/10:00am 13.2 10.9 10.4 83 1.5 ESE 13 19 7 10 1017.8 1017.8 0.0
25/09:30am 13.3 11.0 10.3 82 1.6 SE 13 22 7 12 1017.8 1017.8 0.0
25/09:07am 13.2 11.2 10.2 82 1.6 SE 11 17 6 9 1018.2 1018.2 0.0
25/09:00am 13.1 10.7 10.1 82 1.5 SE 13 17 7 9 1018.3 1018.3 0.0
25/08:40am 12.6 11.7 11.2 91 0.7 ESE 7 13 4 7 1018.4 1018.4 0.0
25/08:30am 12.5 11.2 11.2 92 0.7 SE 9 11 5 6 1018.2 1018.2 0.0
25/08:00am 12.2 10.9 11.4 95 0.4 SE 9 13 5 7 1018.1 1018.1 0.0
25/07:30am 11.8 10.8 11.0 95 0.4 SE 7 11 4 6 1017.8 1017.8 0.0
25/07:20am 11.8 10.4 11.0 95 0.4 SE 9 17 5 9 1017.5 1017.5 0.0
25/07:17am 11.9 10.2 11.1 95 0.4 SE 11 17 6 9 1017.5 1017.5 0.0
25/07:07am 11.9 10.2 11.1 95 0.4 SE 11 13 6 7 1017.4 1017.4 0.0
25/07:02am 11.9 10.5 11.0 94 0.5 SSE 9 13 5 7 1017.4 1017.4 0.0
25/07:00am 12.0 10.7 11.1 94 0.5 SSE 9 13 5 7 1017.4 1017.4 0.0
25/06:30am 11.8 10.7 10.7 93 0.6 SE 7 15 4 8 1017.1 1017.1 0.0
25/06:12am 12.0 10.9 10.7 92 0.7 SE 7 9 4 5 1017.1 1017.1 0.0
25/06:00am 12.1 11.0 10.8 92 0.7 SE 7 9 4 5 1016.9 1016.9 0.0
25/05:53am 12.2 11.3 10.8 91 0.7 SE 6 9 3 5 1016.9 1016.9 0.0
25/05:30am 12.3 10.8 10.4 88 1.0 SE 9 11 5 6 1016.8 1016.8 0.0
25/05:00am 12.6 11.7 10.5 87 1.1 SE 6 9 3 5 1016.8 1016.8 0.0
25/04:30am 12.5 11.5 10.9 90 0.8 SE 7 9 4 5 1016.6 1016.6 0.0
25/04:00am 12.7 11.7 10.9 89 0.9 SE 7 9 4 5 1016.6 1016.6 0.0
25/03:49am 12.8 11.8 10.9 88 1.0 SE 7 11 4 6 1016.6 1016.6 0.0
25/03:30am 13.0 11.9 10.7 86 1.2 SE 7 9 4 5 1016.3 1016.3 0.0
25/03:00am 13.1 11.7 10.8 86 1.2 SSE 9 15 5 8 1016.3 1016.3 0.0
25/02:30am 13.5 12.0 10.7 83 1.5 SSE 9 15 5 8 1016.4 1016.4 0.0
25/02:00am 13.3 12.0 9.9 80 1.8 S 7 13 4 7 1016.7 1016.7 0.0
25/01:30am 13.2 11.5 10.0 81 1.7 SSW 9 13 5 7 1017.1 1017.1 0.0
25/01:00am 13.3 11.7 10.1 81 1.7 SSW 9 15 5 8 1017.3 1017.3 0.0
25/12:30am 13.3 12.2 10.5 83 1.5 SW 7 11 4 6 1017.3 1017.3 0.0
25/12:00am 13.2 12.0 10.2 82 1.6 SW 7 11 4 6 1017.1 1017.1 0.0
 
Date/Time
EDT
Temp
°C
App
Temp
°C
Dew
Point
Rel
Hum
%
Delta-T
°C
Wind Press
QNH
hPa
Press
MSL
hPa
Rain
since 9 am
mm
Dir
 
Spd
km/h
Gust
km/h
Spd
kts
Gust
kts
24/11:30pm 13.2 11.6 10.2 82 1.6 WSW 9 11 5 6 1017.2 1017.2 0.0
24/11:00pm 13.3 10.9 9.9 80 1.8 SSW 13 20 7 11 1017.1 1017.1 0.0
24/10:30pm 13.4 10.8 10.6 83 1.5 SW 15 20 8 11 1016.9 1016.9 0.0
24/10:00pm 13.4 10.7 10.4 82 1.6 SW 15 20 8 11 1016.7 1016.7 0.0
24/09:52pm 13.2 10.6 10.6 84 1.4 WSW 15 20 8 11 1016.7 1016.7 0.0
24/09:30pm 13.2 11.1 11.3 88 1.0 SW 13 17 7 9 1016.4 1016.4 0.0
24/09:15pm 13.2 10.3 11.1 87 1.1 WSW 17 26 9 14 1016.3 1016.3 0.0
24/09:00pm 13.5 10.7 11.4 87 1.1 WSW 17 24 9 13 1016.1 1016.1 0.0
24/08:30pm 13.6 11.4 10.9 84 1.4 W 13 17 7 9 1015.7 1015.7 0.0
24/08:00pm 13.7 10.7 10.7 82 1.6 W 17 24 9 13 1015.3 1015.3 0.0
24/07:30pm 13.8 10.7 11.5 86 1.2 W 19 24 10 13 1015.0 1015.0 0.0
24/07:00pm 14.0 10.2 11.2 83 1.5 W 22 32 12 17 1014.5 1014.5 0.0
24/06:32pm 14.3 10.6 11.5 83 1.5 W 22 33 12 18 1014.2 1014.2 0.0
24/06:30pm 14.4 10.3 11.6 83 1.5 W 24 33 13 18 1014.2 1014.2 0.0
24/06:00pm 14.7 9.9 11.8 83 1.6 W 28 37 15 20 1013.7 1013.7 0.0
24/05:30pm 15.1 9.9 11.7 80 1.8 W 30 43 16 23 1013.6 1013.6 0.0
24/05:00pm 14.6 9.1 11.9 84 1.5 W 32 44 17 24 1013.4 1013.4 0.0
24/04:30pm 14.9 9.8 12.0 83 1.6 W 30 39 16 21 1013.3 1013.3 0.0
24/04:16pm 15.2 9.2 12.0 81 1.7 W 35 54 19 29 1013.1 1013.1 0.0
24/04:00pm 15.5 9.4 11.9 79 2.0 W 35 48 19 26 1012.9 1012.9 0.0
24/03:30pm 15.9 10.6 12.6 81 1.8 WNW 32 43 17 23 1012.9 1012.9 0.0
24/03:00pm 16.1 10.4 13.0 82 1.7 W 35 44 19 24 1012.7 1012.7 0.0
24/02:30pm 16.7 11.8 13.8 83 1.6 W 32 43 17 23 1012.7 1012.7 0.0
24/02:00pm 16.7 12.8 13.2 80 2.0 W 26 37 14 20 1012.6 1012.6 0.0
24/01:30pm 16.0 12.0 12.9 82 1.7 W 26 37 14 20 1012.6 1012.6 0.0
24/01:00pm 16.3 13.3 13.6 84 1.5 W 22 32 12 17 1012.6 1012.6 0.0
24/12:51pm 15.7 11.5 13.5 87 1.2 WNW 28 39 15 21 1012.7 1012.7 0.0
24/12:30pm 15.2 10.7 13.7 91 0.8 W 30 41 16 22 1013.0 1013.0 0.0
24/12:00pm 14.6 10.5 13.8 95 0.4 W 28 41 15 22 1013.1 1013.1 0.0
24/11:30am 14.5 10.0 13.7 95 0.4 W 30 41 16 22 1013.1 1013.1 0.0
24/11:13am 14.9 9.9 13.4 91 0.8 W 32 43 17 23 1013.2 1013.2 0.0
24/11:08am 15.6 11.0 13.6 88 1.1 W 30 37 16 20 1013.0 1013.0 0.0
24/11:00am 16.3 12.6 14.0 86 1.3 WNW 26 37 14 20 1012.9 1012.9 0.0
24/10:30am 17.3 13.4 14.4 83 1.7 W 28 39 15 21 1012.6 1012.6 0.0
24/10:13am 17.6 12.7 14.3 81 1.9 WNW 33 41 18 22 1012.6 1012.6 0.0
24/10:00am 19.1 18.1 15.6 80 2.1 WNW 15 22 8 12 1011.8 1011.9 0.0
24/09:30am 17.5 15.2 14.6 83 1.7 WNW 20 30 11 16 1011.7 1011.8 0.0
24/09:04am 15.6 15.9 15.1 97 0.3 N 7 13 4 7 1011.9 1012.0 0.0
24/09:00am 15.3 15.8 15.0 98 0.2 N 6 9 3 5 1012.0 1012.1 0.0
24/08:30am 13.4 13.0 13.1 98 0.2 N 7 11 4 6 1011.9 1012.0 0.0
24/08:00am 13.2 12.8 12.9 98 0.2 NNE 7 11 4 6 1011.9 1012.0 0.0
24/07:30am 12.7 12.1 12.2 97 0.3 NE 7 9 4 5 1011.7 1011.8 0.0
24/07:00am 12.6 12.1 12.1 97 0.3 NE 6 7 3 4 1011.5 1011.6 0.0
24/06:30am 12.5 11.8 11.9 96 0.3 NE 7 9 4 5 1011.6 1011.7 0.0
24/06:00am 12.9 12.5 12.3 96 0.3 ENE 6 9 3 5 1011.3 1011.4 0.0
24/05:30am 13.0 12.5 12.2 95 0.4 NE 6 9 3 5 1011.6 1011.7 0.0
24/05:00am 13.4 13.0 12.5 94 0.5 ENE 6 9 3 5 1011.5 1011.6 0.0
24/04:30am 13.4 12.8 12.3 93 0.6 ENE 7 11 4 6 1011.6 1011.7 0.0
24/04:05am 13.6 12.6 12.3 92 0.7 ENE 9 13 5 7 1011.7 1011.8 0.0
24/04:00am 13.7 12.7 12.4 92 0.7 ENE 9 13 5 7 1011.7 1011.8 0.0
24/03:40am 14.2 13.4 12.8 91 0.8 NE 9 13 5 7 1011.9 1012.0 0.0
24/03:30am 14.4 13.6 13.0 91 0.8 ENE 9 17 5 9 1011.9 1012.0 0.0
24/03:00am 14.8 13.4 13.3 91 0.8 NE 13 20 7 11 1012.5 1012.5 0.0
24/02:30am 14.9 13.5 13.4 91 0.8 ENE 13 20 7 11 1012.8 1012.8 0.0
24/02:00am 15.0 14.0 13.5 91 0.8 ENE 11 17 6 9 1013.3 1013.3 0.0
24/01:30am 15.1 13.8 13.6 91 0.8 ENE 13 19 7 10 1013.7 1013.7 0.0
24/01:00am 14.9 13.2 13.6 92 0.7 ENE 15 22 8 12 1013.9 1013.9 0.0
24/12:39am 14.8 13.1 13.7 93 0.6 E 15 26 8 14 1013.9 1013.9 0.0
24/12:30am 14.8 13.2 13.8 94 0.6 ENE 15 22 8 12 1014.0 1014.0 0.0
24/12:00am 14.6 13.7 13.8 95 0.4 ENE 11 19 6 10 1014.5 1014.5 0.0
 
Date/Time
EDT
Temp
°C
App
Temp
°C
Dew
Point
Rel
Hum
%
Delta-T
°C
Wind Press
QNH
hPa
Press
MSL
hPa
Rain
since 9 am
mm
Dir
 
Spd
km/h
Gust
km/h
Spd
kts
Gust
kts
23/11:30pm 14.3 13.0 13.7 96 0.3 ENE 13 19 7 10 1015.1 1015.1 0.0
23/11:00pm 13.7 12.6 13.2 97 0.3 ENE 11 17 6 9 1015.2 1015.2 0.0
23/10:57pm 13.6 12.5 13.1 97 0.3 ENE 11 17 6 9 1015.2 1015.2 0.0
23/10:36pm 13.3 12.5 12.8 97 0.3 ENE 9 15 5 8 1015.5 1015.5 0.0
23/10:30pm 13.4 12.6 12.9 97 0.3 ENE 9 15 5 8 1015.6 1015.6 0.0
23/10:25pm 13.3 12.5 12.8 97 0.3 ENE 9 15 5 8 1015.5 1015.5 0.0
23/10:20pm 13.4 12.6 12.9 97 0.3 ENE 9 15 5 8 1015.5 1015.5 0.0
23/10:00pm 13.3 12.1 12.7 96 0.3 E 11 15 6 8 1015.3 1015.3 0.0
23/09:30pm 12.5 11.3 11.7 95 0.4 E 9 11 5 6 1015.6 1015.6 0.0
23/09:19pm 12.4 11.2 11.6 95 0.4 E 9 11 5 6 1015.8 1015.8 0.0
23/09:08pm 12.3 11.0 11.4 94 0.5 ESE 9 13 5 7 1015.8 1015.8 0.0
23/09:00pm 12.4 11.2 11.5 94 0.5 ESE 9 13 5 7 1015.7 1015.7 0.0
23/08:38pm 12.6 11.7 11.5 93 0.6 ESE 7 11 4 6 1015.7 1015.7 0.0
23/08:30pm 12.8 12.0 11.7 93 0.6 ESE 7 11 4 6 1015.7 1015.7 0.0
23/08:21pm 13.0 12.2 11.7 92 0.7 ESE 7 11 4 6 1015.8 1015.8 0.0
23/08:13pm 13.1 12.0 11.8 92 0.7 ESE 9 13 5 7 1015.7 1015.7 0.0
23/08:00pm 13.4 11.9 12.0 91 0.8 ESE 11 17 6 9 1015.6 1015.6 0.0
23/07:30pm 14.1 12.0 12.3 89 1.0 ESE 15 20 8 11 1015.9 1015.9 0.0
23/07:00pm 14.3 12.6 12.3 88 1.1 ESE 13 20 7 11 1016.1 1016.1 0.0
23/06:30pm 14.6 12.9 12.3 86 1.3 ESE 13 20 7 11 1016.1 1016.1 0.0
23/06:00pm 14.6 11.6 11.9 84 1.5 ESE 19 26 10 14 1016.1 1016.1 0.0
23/05:30pm 14.8 12.2 11.9 83 1.6 ESE 17 24 9 13 1016.2 1016.2 0.0
23/05:00pm 15.2 12.2 12.1 82 1.7 ESE 19 26 10 14 1016.3 1016.3 0.0
23/04:30pm 14.8 11.9 12.3 85 1.4 ESE 19 28 10 15 1016.5 1016.5 0.0
23/04:00pm 14.7 10.8 12.0 84 1.5 SE 24 33 13 18 1016.7 1016.7 0.0
23/03:30pm 15.2 12.0 12.0 81 1.7 SE 20 32 11 17 1017.5 1017.5 0.0

Other Formats:

Comma delimited format used in spreadsheet applications
http://www.bom.gov.au/fwo/IDV60801/IDV60801.94828.axf

JavaScript Object Notation format (JSON) in row-major order
http://www.bom.gov.au/fwo/IDV60801/IDV60801.94828.json